CheckWX is a tool to help pilots better visualize weather data.  It is not intended as a substitute for an official pre-flight weather briefing.

18:37:40 UTC

SARI METAR
Cataratas Del Iguazú International Airport
Puerto Iguazu, Argentina
Current

38 mins ago

SARI 201800Z 18006KT 9999 SCT025 24/18 Q1012
Observed
Sep-20 @ 18:00 UTC
Wind
  • 180° at 6 KTS
Visibility
10,000+ meters
Flight Rules
VFR
Cloud Levels
  • Scattered at 2,500' AGL
Temperature
24°C / 75°F
Dewpoint
18°C / 64°F
Humidity
69%
Altimeter
29.88" Hg
Pressure
1011.92 hPa
Previous

2 hours ago

SARI 201700Z 18010KT 9999 BKN025 SCT100 24/20 Q1012
Observed
Sep-20 @ 17:00 UTC
Wind
  • 180° at 10 KTS
Visibility
10,000+ meters
Flight Rules
MVFR
Cloud Levels
  • Broken at 2,500' AGL
  • Scattered at 10,000' AGL
Temperature
24°C / 75°F
Dewpoint
20°C / 68°F
Humidity
78%
Altimeter
29.88" Hg
Pressure
1011.92 hPa
Previous

3 hours ago

SARI 201600Z 18006KT 9999 FEW015 BKN020 OVC100 22/20 Q1012
Observed
Sep-20 @ 16:00 UTC
Wind
  • 180° at 6 KTS
Visibility
10,000+ meters
Flight Rules
MVFR
Cloud Levels
  • Few at 1,500' AGL
  • Broken at 2,000' AGL
  • Overcast at 10,000' AGL
Temperature
22°C / 72°F
Dewpoint
20°C / 68°F
Humidity
88%
Altimeter
29.88" Hg
Pressure
1011.92 hPa